createdAt,value
2018-06-27T00:00:57.919Z,99.52
2018-06-27T00:01:57.927Z,99.52
2018-06-27T00:02:57.796Z,99.99
2018-06-27T00:03:57.743Z,99.99
2018-06-27T00:04:57.674Z,99.86
2018-06-27T00:05:57.612Z,99.99
2018-06-27T00:06:57.548Z,99.99
2018-06-27T00:07:57.487Z,99.62
2018-06-27T00:08:57.426Z,99.24
2018-06-27T00:09:57.364Z,99.71
2018-06-27T00:10:57.300Z,99.99
2018-06-27T00:11:57.239Z,99.99
2018-06-27T00:12:57.180Z,99.99
2018-06-27T00:13:57.116Z,99.99
2018-06-27T00:14:57.053Z,99.99
2018-06-27T00:15:56.991Z,99.99
2018-06-27T00:16:56.930Z,99.99
2018-06-27T00:17:56.866Z,99.99
2018-06-27T00:18:56.804Z,99.99
2018-06-27T00:19:56.740Z,99.99
2018-06-27T00:20:56.683Z,99.99
2018-06-27T00:21:56.624Z,99.99
2018-06-27T00:22:56.555Z,99.99
2018-06-27T00:23:56.492Z,99.99
2018-06-27T00:24:56.433Z,99.99
2018-06-27T00:25:56.371Z,99.99
2018-06-27T00:26:56.307Z,99.99
2018-06-27T00:27:56.246Z,99.99
2018-06-27T00:28:56.185Z,99.99
2018-06-27T00:29:56.123Z,99.99
2018-06-27T00:30:56.059Z,99.99
2018-06-27T00:31:56.000Z,99.99
2018-06-27T00:32:55.935Z,99.99
2018-06-27T00:33:55.905Z,99.99
2018-06-27T00:34:55.817Z,99.99
2018-06-27T00:35:55.756Z,99.99
2018-06-27T00:36:55.686Z,99.99
2018-06-27T00:37:55.625Z,99.99
2018-06-27T00:38:55.564Z,99.99
2018-06-27T00:39:55.503Z,99.99
2018-06-27T00:40:55.437Z,99.99
2018-06-27T00:41:55.377Z,99.99
2018-06-27T00:42:55.315Z,99.99
2018-06-27T00:43:55.253Z,99.99
2018-06-27T00:44:55.190Z,99.99
2018-06-27T00:45:55.130Z,99.99
2018-06-27T00:46:55.064Z,99.99
2018-06-27T00:47:55.007Z,99.99
2018-06-27T00:48:54.939Z,99.99
2018-06-27T00:49:54.881Z,99.99
2018-06-27T00:50:54.816Z,99.99
2018-06-27T00:51:54.756Z,99.99
2018-06-27T00:52:54.693Z,99.99
2018-06-27T00:53:54.632Z,99.99
2018-06-27T00:54:54.568Z,99.99
2018-06-27T00:55:54.505Z,99.99
2018-06-27T00:56:54.442Z,99.99
2018-06-27T00:57:54.380Z,99.99
2018-06-27T00:58:54.319Z,99.99
2018-06-27T00:59:54.255Z,99.99
2018-06-27T01:00:54.194Z,99.99
2018-06-27T01:01:54.132Z,99.99
2018-06-27T01:02:54.068Z,99.99
2018-06-27T01:03:54.006Z,99.99
2018-06-27T01:04:53.945Z,99.99
2018-06-27T01:05:53.882Z,99.99
2018-06-27T01:06:53.819Z,99.99
2018-06-27T01:07:53.757Z,99.99
2018-06-27T01:08:53.695Z,99.99
2018-06-27T01:09:53.633Z,99.99
2018-06-27T01:10:53.569Z,99.99
2018-06-27T01:11:53.511Z,99.99
2018-06-27T01:12:53.444Z,99.99
2018-06-27T01:13:53.383Z,99.99
2018-06-27T01:14:53.319Z,99.99
2018-06-27T01:15:53.259Z,99.99
2018-06-27T01:16:53.198Z,99.99
2018-06-27T01:17:53.134Z,99.99
2018-06-27T01:18:53.071Z,99.99
2018-06-27T01:19:53.008Z,99.99
2018-06-27T01:20:52.949Z,99.99
2018-06-27T01:21:52.885Z,99.99
2018-06-27T01:22:52.821Z,99.99
2018-06-27T01:23:52.760Z,99.99
2018-06-27T01:24:52.700Z,99.99
2018-06-27T01:25:52.635Z,99.99
2018-06-27T01:26:52.576Z,99.99
2018-06-27T01:27:52.509Z,99.99
2018-06-27T01:28:52.446Z,99.99
2018-06-27T01:29:52.392Z,99.99
2018-06-27T01:30:52.324Z,99.99
2018-06-27T01:31:52.261Z,99.99
2018-06-27T01:32:52.199Z,99.99
2018-06-27T01:33:52.137Z,99.99
2018-06-27T01:34:52.071Z,99.99
2018-06-27T01:35:52.011Z,99.99
2018-06-27T01:36:51.948Z,99.99
2018-06-27T01:37:51.884Z,99.99
2018-06-27T01:38:51.822Z,99.99
2018-06-27T01:39:51.760Z,99.99
2018-06-27T01:40:51.698Z,99.99
2018-06-27T01:41:51.637Z,99.99
2018-06-27T01:42:51.573Z,99.99
2018-06-27T01:43:51.512Z,99.99
2018-06-27T01:44:51.448Z,99.99
2018-06-27T01:45:51.388Z,99.99
2018-06-27T01:46:51.323Z,99.99
2018-06-27T01:47:51.264Z,99.99
2018-06-27T01:48:51.197Z,99.99
2018-06-27T01:49:51.137Z,99.99
2018-06-27T01:50:51.075Z,99.99
2018-06-27T01:51:51.012Z,99.99
2018-06-27T01:52:50.950Z,99.99
2018-06-27T01:53:50.889Z,99.99
2018-06-27T01:54:50.823Z,99.99
2018-06-27T01:55:50.763Z,99.99
2018-06-27T01:56:50.700Z,99.99
2018-06-27T01:57:50.638Z,99.99
2018-06-27T01:58:50.573Z,99.99
2018-06-27T01:59:50.511Z,99.99
2018-06-27T02:00:50.450Z,99.99
2018-06-27T02:01:50.387Z,99.99
2018-06-27T02:02:50.322Z,99.99
2018-06-27T02:03:50.265Z,99.99
2018-06-27T02:04:50.200Z,99.99
2018-06-27T02:05:50.136Z,99.99
2018-06-27T02:06:50.073Z,99.99
2018-06-27T02:07:50.011Z,99.99
2018-06-27T02:08:49.949Z,99.99
2018-06-27T02:09:49.884Z,99.99
2018-06-27T02:10:49.822Z,99.99
2018-06-27T02:11:49.761Z,99.99
2018-06-27T02:12:49.698Z,99.99
2018-06-27T02:13:49.636Z,99.99
2018-06-27T02:14:49.572Z,99.99
2018-06-27T02:15:49.510Z,99.99
2018-06-27T02:16:49.447Z,99.99
2018-06-27T02:17:49.386Z,99.99
2018-06-27T02:18:49.321Z,99.99
2018-06-27T02:19:49.260Z,99.99
2018-06-27T02:20:49.198Z,99.99
2018-06-27T02:21:49.135Z,99.99
2018-06-27T02:22:49.071Z,99.99
2018-06-27T02:23:49.009Z,99.99
2018-06-27T02:24:48.947Z,99.99
2018-06-27T02:25:48.885Z,99.99
2018-06-27T02:26:48.822Z,99.99
2018-06-27T02:27:48.760Z,99.99
2018-06-27T02:28:48.697Z,99.99
2018-06-27T02:29:48.640Z,99.99
2018-06-27T02:30:48.573Z,99.99
2018-06-27T02:31:48.514Z,99.99
2018-06-27T02:32:48.449Z,99.99
2018-06-27T02:33:48.387Z,99.99
2018-06-27T02:34:48.321Z,99.99
2018-06-27T02:35:48.261Z,99.99
2018-06-27T02:36:48.198Z,99.99
2018-06-27T02:37:48.136Z,99.99
2018-06-27T02:38:48.073Z,99.99
2018-06-27T02:39:48.008Z,99.99
2018-06-27T02:40:47.948Z,99.99
2018-06-27T02:41:47.886Z,99.99
2018-06-27T02:42:47.821Z,99.99
2018-06-27T02:43:47.759Z,99.99
2018-06-27T02:44:47.696Z,99.99
2018-06-27T02:45:47.634Z,99.99
2018-06-27T02:46:47.571Z,99.99
2018-06-27T02:47:47.512Z,99.99
2018-06-27T02:48:47.461Z,99.99
2018-06-27T02:49:47.445Z,99.99
2018-06-27T02:50:47.320Z,99.99
2018-06-27T02:51:47.259Z,99.99
2018-06-27T02:52:47.195Z,99.99
2018-06-27T02:53:47.133Z,99.99
2018-06-27T02:54:47.069Z,99.99
2018-06-27T02:55:47.008Z,99.99
2018-06-27T02:56:46.944Z,99.99
2018-06-27T02:57:46.882Z,99.99
2018-06-27T02:58:46.819Z,99.99
2018-06-27T02:59:46.760Z,99.99
2018-06-27T03:00:46.696Z,99.99
2018-06-27T03:01:46.634Z,99.99
2018-06-27T03:02:46.575Z,99.99
2018-06-27T03:03:46.507Z,99.99
2018-06-27T03:04:46.443Z,99.99
2018-06-27T03:05:46.386Z,99.99
2018-06-27T03:06:46.317Z,99.99
2018-06-27T03:07:46.256Z,99.99
2018-06-27T03:08:46.192Z,99.99
2018-06-27T03:09:46.130Z,99.99
2018-06-27T03:10:46.068Z,99.99
2018-06-27T03:11:46.004Z,99.99
2018-06-27T03:12:45.942Z,99.99
2018-06-27T03:13:45.879Z,99.99
2018-06-27T03:14:45.818Z,99.99
2018-06-27T03:15:45.752Z,99.99
2018-06-27T03:16:45.691Z,99.99
2018-06-27T03:17:45.630Z,99.99
2018-06-27T03:18:45.565Z,99.99
2018-06-27T03:19:45.502Z,99.99
2018-06-27T03:20:45.441Z,99.99
2018-06-27T03:21:45.379Z,99.99
2018-06-27T03:22:45.314Z,99.99
2018-06-27T03:23:45.250Z,99.99
2018-06-27T03:24:45.189Z,99.99
2018-06-27T03:25:45.125Z,99.99
2018-06-27T03:26:45.062Z,99.99
2018-06-27T03:27:45.000Z,99.99
2018-06-27T03:28:44.938Z,99.99
2018-06-27T03:29:44.876Z,99.99
2018-06-27T03:30:44.813Z,99.99
2018-06-27T03:31:44.750Z,99.99
2018-06-27T03:32:44.686Z,99.99
2018-06-27T03:33:44.652Z,99.99
2018-06-27T03:34:44.564Z,99.99
2018-06-27T03:35:44.501Z,99.99
2018-06-27T03:36:44.436Z,99.99
2018-06-27T03:37:44.373Z,99.99
2018-06-27T03:38:44.310Z,99.99
2018-06-27T03:39:44.244Z,99.99
2018-06-27T03:40:44.185Z,99.99
2018-06-27T03:41:44.123Z,99.99
2018-06-27T03:42:44.059Z,99.99
2018-06-27T03:43:43.997Z,99.99
2018-06-27T03:44:43.933Z,99.99
2018-06-27T03:45:43.876Z,99.99
2018-06-27T03:46:43.807Z,99.99
2018-06-27T03:47:43.746Z,99.99
2018-06-27T03:48:43.682Z,99.99
2018-06-27T03:49:43.621Z,99.99
2018-06-27T03:50:43.559Z,99.99
2018-06-27T03:51:43.493Z,99.99
2018-06-27T03:52:43.431Z,99.99
2018-06-27T03:53:43.373Z,99.99
2018-06-27T03:54:43.305Z,99.99
2018-06-27T03:55:43.243Z,99.99
2018-06-27T03:56:43.180Z,99.99
2018-06-27T03:57:43.118Z,99.99
2018-06-27T03:58:43.058Z,99.99
2018-06-27T03:59:42.992Z,99.99
2018-06-27T04:00:42.944Z,99.99
2018-06-27T04:01:42.870Z,99.99
2018-06-27T04:02:42.802Z,99.99
2018-06-27T04:03:42.742Z,99.99
2018-06-27T04:04:42.681Z,99.99
2018-06-27T04:05:42.615Z,99.99
2018-06-27T04:06:42.552Z,99.99
2018-06-27T04:07:42.492Z,99.99
2018-06-27T04:08:42.428Z,99.99
2018-06-27T04:09:42.364Z,99.99
2018-06-27T04:10:42.304Z,99.99
2018-06-27T04:11:42.244Z,99.99
2018-06-27T04:12:42.201Z,99.99
2018-06-27T04:13:42.114Z,99.99
2018-06-27T04:14:42.051Z,99.99
2018-06-27T04:15:41.998Z,99.99
2018-06-27T04:16:41.926Z,99.99
2018-06-27T04:17:41.860Z,99.99
2018-06-27T04:18:41.808Z,99.99
2018-06-27T04:19:41.736Z,99.99
2018-06-27T04:20:41.672Z,99.99
2018-06-27T04:21:41.614Z,99.99
2018-06-27T04:22:41.548Z,99.99
2018-06-27T04:23:41.488Z,99.99
2018-06-27T04:24:41.422Z,99.99
2018-06-27T04:25:41.358Z,99.99
2018-06-27T04:26:41.296Z,99.99
2018-06-27T04:27:41.235Z,99.99
2018-06-27T04:28:41.172Z,99.99
2018-06-27T04:29:41.110Z,99.99
2018-06-27T04:30:41.046Z,99.99
2018-06-27T04:31:40.985Z,99.99
2018-06-27T04:32:40.923Z,99.99
2018-06-27T04:33:40.861Z,99.99
2018-06-27T04:34:40.802Z,99.99
2018-06-27T04:35:40.733Z,99.99
2018-06-27T04:36:40.672Z,99.99
2018-06-27T04:37:40.611Z,99.99
2018-06-27T04:38:40.545Z,99.99
2018-06-27T04:39:40.482Z,99.99
2018-06-27T04:40:40.421Z,99.99
2018-06-27T04:41:40.359Z,99.99
2018-06-27T04:42:40.295Z,99.99
2018-06-27T04:43:40.234Z,99.99
2018-06-27T04:44:40.171Z,99.99
2018-06-27T04:45:40.109Z,99.99
2018-06-27T04:46:40.044Z,99.99
2018-06-27T04:47:39.983Z,99.99
2018-06-27T04:48:39.920Z,99.99
2018-06-27T04:49:39.860Z,99.95
2018-06-27T04:50:39.796Z,99.85
2018-06-27T04:51:39.733Z,99.99
2018-06-27T04:52:39.671Z,99.99
2018-06-27T04:53:39.609Z,99.99
2018-06-27T04:54:39.545Z,99.57
2018-06-27T04:55:39.483Z,99.81
2018-06-27T04:56:39.422Z,99.62
2018-06-27T04:57:39.358Z,99.99
2018-06-27T04:58:39.296Z,99.71
2018-06-27T04:59:39.234Z,99.99
2018-06-27T05:00:39.171Z,99.14
2018-06-27T05:01:39.141Z,99.71
2018-06-27T05:02:39.045Z,99.24
2018-06-27T05:03:38.982Z,99.43
2018-06-27T05:04:38.921Z,99.04
2018-06-27T05:05:38.859Z,98.95
2018-06-27T05:06:38.793Z,98.18
2018-06-27T05:07:38.733Z,98.09
2018-06-27T05:08:38.673Z,98.28
2018-06-27T05:09:38.609Z,98.09
2018-06-27T05:10:38.545Z,98.47
2018-06-27T05:11:38.501Z,97.90
2018-06-27T05:12:38.423Z,97.85
2018-06-27T05:13:38.359Z,98.33
2018-06-27T05:14:38.298Z,98.04
2018-06-27T05:15:38.235Z,98.04
2018-06-27T05:16:38.173Z,97.75
2018-06-27T05:17:38.109Z,97.47
2018-06-27T05:18:38.046Z,97.47
2018-06-27T05:19:37.986Z,97.56
2018-06-27T05:20:37.924Z,96.42
2018-06-27T05:21:37.861Z,96.61
2018-06-27T05:22:37.799Z,96.51
2018-06-27T05:23:37.737Z,96.66
2018-06-27T05:24:37.678Z,96.94
2018-06-27T05:25:37.612Z,95.51
2018-06-27T05:26:37.550Z,95.51
2018-06-27T05:27:37.608Z,95.79
2018-06-27T05:28:37.426Z,95.61
2018-06-27T05:29:37.366Z,94.55
2018-06-27T05:30:37.302Z,94.74
2018-06-27T05:31:37.240Z,94.26
2018-06-27T05:32:37.195Z,93.83
2018-06-27T05:33:37.121Z,93.79
2018-06-27T05:34:37.058Z,93.93
2018-06-27T05:35:36.995Z,93.35
2018-06-27T05:36:36.930Z,93.26
2018-06-27T05:37:36.872Z,92.97
2018-06-27T05:38:36.808Z,92.58
2018-06-27T05:39:36.745Z,92.87
2018-06-27T05:40:36.683Z,92.49
2018-06-27T05:41:36.622Z,92.68
2018-06-27T05:42:36.560Z,91.82
2018-06-27T05:43:36.499Z,92.15
2018-06-27T05:44:36.436Z,92.21
2018-06-27T05:45:36.374Z,92.21
2018-06-27T05:46:36.312Z,91.58
2018-06-27T05:47:36.252Z,91.86
2018-06-27T05:48:36.190Z,91.39
2018-06-27T05:49:36.128Z,90.81
2018-06-27T05:50:36.067Z,89.47
2018-06-27T05:51:36.048Z,88.80
2018-06-27T05:52:35.943Z,88.75
2018-06-27T05:53:35.883Z,88.27
2018-06-27T05:54:35.819Z,88.08
2018-06-27T05:55:35.758Z,87.31
2018-06-27T05:56:35.693Z,86.64
2018-06-27T05:57:35.636Z,86.54
2018-06-27T05:58:35.620Z,86.25
2018-06-27T05:59:35.512Z,85.58
2018-06-27T06:00:35.451Z,85.92
2018-06-27T06:01:35.390Z,85.92
2018-06-27T06:02:35.328Z,84.95
2018-06-27T06:03:35.265Z,84.95
2018-06-27T06:04:35.207Z,85.15
2018-06-27T06:05:35.151Z,84.09
2018-06-27T06:06:35.084Z,84.48
2018-06-27T06:07:35.021Z,83.61
2018-06-27T06:08:34.959Z,82.85
2018-06-27T06:09:34.899Z,83.61
2018-06-27T06:10:34.837Z,82.98
2018-06-27T06:11:34.806Z,83.27
2018-06-27T06:12:34.714Z,82.12
2018-06-27T06:13:34.655Z,82.60
2018-06-27T06:14:34.593Z,82.70
2018-06-27T06:15:34.533Z,82.51
2018-06-27T06:16:34.470Z,82.60
2018-06-27T06:17:34.410Z,81.93
2018-06-27T06:18:34.349Z,82.70
2018-06-27T06:19:34.287Z,82.21
2018-06-27T06:20:34.230Z,81.84
2018-06-27T06:21:34.165Z,81.35
2018-06-27T06:22:34.103Z,80.43
2018-06-27T06:23:34.043Z,80.53
2018-06-27T06:24:33.986Z,80.34
2018-06-27T06:25:33.923Z,80.73
2018-06-27T06:26:33.861Z,79.76
2018-06-27T06:27:33.798Z,79.57
2018-06-27T06:28:33.738Z,79.86
2018-06-27T06:29:33.677Z,79.47
2018-06-27T06:30:33.615Z,80.05
2018-06-27T06:31:33.555Z,79.96
2018-06-27T06:32:33.557Z,80.05
2018-06-27T06:33:33.435Z,79.09
2018-06-27T06:34:33.373Z,78.52
2018-06-27T06:35:33.312Z,78.80
2018-06-27T06:36:33.252Z,78.65
2018-06-27T06:37:33.192Z,78.36
2018-06-27T06:38:33.134Z,78.65
2018-06-27T06:39:33.070Z,79.03
2018-06-27T06:40:33.010Z,78.27
2018-06-27T06:41:32.951Z,78.55
2018-06-27T06:42:32.888Z,78.27
2018-06-27T06:43:32.830Z,78.84
2018-06-27T06:44:32.767Z,78.08
2018-06-27T06:45:32.707Z,78.55
2018-06-27T06:46:32.645Z,78.65
2018-06-27T06:47:32.585Z,78.36
2018-06-27T06:48:32.525Z,77.98
2018-06-27T06:49:32.465Z,78.45
2018-06-27T06:50:32.402Z,77.88
2018-06-27T06:51:32.344Z,77.88
2018-06-27T06:52:32.285Z,77.59
2018-06-27T06:53:32.223Z,77.69
2018-06-27T06:54:32.162Z,77.50
2018-06-27T06:55:32.103Z,77.34
2018-06-27T06:56:32.044Z,77.15
2018-06-27T06:57:31.984Z,76.86
2018-06-27T06:58:31.923Z,76.96
2018-06-27T06:59:31.862Z,76.86
2018-06-27T07:00:31.805Z,77.15
2018-06-27T07:01:31.742Z,76.48
2018-06-27T07:02:31.682Z,76.86
2018-06-27T07:03:31.622Z,76.09
2018-06-27T07:04:31.561Z,76.29
2018-06-27T07:05:31.510Z,76.19
2018-06-27T07:06:31.441Z,76.00
2018-06-27T07:07:31.381Z,76.23
2018-06-27T07:08:31.327Z,75.94
2018-06-27T07:09:31.260Z,75.94
2018-06-27T07:10:31.201Z,76.04
2018-06-27T07:11:31.142Z,76.14
2018-06-27T07:12:31.083Z,76.04
2018-06-27T07:13:31.024Z,75.56
2018-06-27T07:14:30.968Z,75.84
2018-06-27T07:15:30.903Z,75.56
2018-06-27T07:16:30.844Z,75.94
2018-06-27T07:17:30.784Z,75.56
2018-06-27T07:18:30.722Z,75.37
2018-06-27T07:19:30.665Z,75.79
2018-06-27T07:20:30.604Z,75.02
2018-06-27T07:21:30.544Z,75.11
2018-06-27T07:22:30.487Z,74.44
2018-06-27T07:23:30.425Z,75.21
2018-06-27T07:24:30.368Z,74.76
2018-06-27T07:25:30.307Z,74.19
2018-06-27T07:26:30.248Z,74.19
2018-06-27T07:27:30.189Z,73.99
2018-06-27T07:28:30.157Z,74.48
2018-06-27T07:29:30.069Z,73.99
2018-06-27T07:30:30.012Z,73.67
2018-06-27T07:31:29.954Z,73.00
2018-06-27T07:32:29.894Z,72.94
2018-06-27T07:33:29.836Z,72.84
2018-06-27T07:34:29.774Z,73.32
2018-06-27T07:35:29.716Z,73.51
2018-06-27T07:36:29.695Z,73.80
2018-06-27T07:37:29.597Z,73.71
2018-06-27T07:38:29.538Z,73.03
2018-06-27T07:39:29.479Z,73.32
2018-06-27T07:40:29.421Z,73.61
2018-06-27T07:41:29.364Z,73.42
2018-06-27T07:42:29.304Z,73.03
2018-06-27T07:43:29.244Z,72.55
2018-06-27T07:44:29.230Z,72.36
2018-06-27T07:45:29.125Z,72.84
2018-06-27T07:46:29.065Z,73.22
2018-06-27T07:47:29.004Z,73.13
2018-06-27T07:48:28.950Z,72.94
2018-06-27T07:49:28.888Z,72.74
2018-06-27T07:50:28.831Z,73.80
2018-06-27T07:51:28.770Z,73.42
2018-06-27T07:52:28.713Z,73.03
2018-06-27T07:53:28.655Z,73.03
2018-06-27T07:54:28.594Z,73.13
2018-06-27T07:55:28.537Z,72.20
2018-06-27T07:56:28.476Z,72.39
2018-06-27T07:57:28.422Z,71.53
2018-06-27T07:58:28.360Z,71.04
2018-06-27T07:59:28.302Z,70.60
2018-06-27T08:00:28.243Z,69.83
2018-06-27T08:01:28.183Z,68.58
2018-06-27T08:02:28.124Z,69.15
2018-06-27T08:03:28.066Z,68.90
2018-06-27T08:04:28.009Z,69.09
2018-06-27T08:05:27.949Z,68.58
2018-06-27T08:06:27.892Z,67.65
2018-06-27T08:07:27.832Z,66.78
2018-06-27T08:08:27.772Z,67.42
2018-06-27T08:09:27.715Z,67.23
2018-06-27T08:10:27.656Z,67.33
2018-06-27T08:11:27.606Z,66.75
2018-06-27T08:12:27.631Z,67.03
2018-06-27T08:13:27.483Z,66.55
2018-06-27T08:14:27.424Z,66.11
2018-06-27T08:15:27.366Z,66.49
2018-06-27T08:16:27.305Z,66.11
2018-06-27T08:17:27.250Z,64.95
2018-06-27T08:18:27.187Z,65.27
2018-06-27T08:19:27.132Z,64.98
2018-06-27T08:20:27.072Z,64.98
2018-06-27T08:21:27.016Z,65.33
2018-06-27T08:22:26.953Z,64.76
2018-06-27T08:23:26.897Z,64.02
2018-06-27T08:24:26.842Z,63.98
2018-06-27T08:25:26.782Z,64.95
2018-06-27T08:26:26.876Z,65.53
2018-06-27T08:27:26.665Z,66.20
2018-06-27T08:28:26.607Z,66.01
2018-06-27T08:29:26.549Z,65.17
2018-06-27T08:30:26.491Z,63.73
2018-06-27T08:31:26.432Z,64.50
2018-06-27T08:32:26.378Z,63.54
2018-06-27T08:33:26.315Z,62.96
2018-06-27T08:34:26.257Z,63.44
2018-06-27T08:35:26.199Z,63.63
2018-06-27T08:36:26.143Z,62.70
2018-06-27T08:37:26.085Z,61.64
2018-06-27T08:38:26.026Z,60.86
2018-06-27T08:39:25.968Z,60.28
2018-06-27T08:40:25.910Z,61.83
2018-06-27T08:41:25.860Z,62.18
2018-06-27T08:42:25.795Z,62.76
2018-06-27T08:43:25.740Z,63.54
2018-06-27T08:44:25.693Z,63.92
2018-06-27T08:45:25.622Z,64.66
2018-06-27T08:46:25.562Z,65.43
2018-06-27T08:47:25.560Z,65.81
2018-06-27T08:48:25.447Z,66.59
2018-06-27T08:49:25.390Z,67.61
2018-06-27T08:50:25.333Z,67.71
2018-06-27T08:51:25.277Z,67.71
2018-06-27T08:52:25.216Z,68.87
2018-06-27T08:53:25.160Z,68.93
2018-06-27T08:54:25.100Z,68.93
2018-06-27T08:55:25.042Z,69.99
2018-06-27T08:56:24.986Z,70.47
2018-06-27T08:57:24.929Z,70.56
2018-06-27T08:58:24.867Z,70.95
2018-06-27T08:59:24.810Z,71.62
2018-06-27T09:00:24.753Z,72.39
2018-06-27T09:01:24.692Z,72.11
2018-06-27T09:02:24.634Z,72.01
2018-06-27T09:03:24.577Z,73.22
2018-06-27T09:04:24.517Z,72.45
2018-06-27T09:05:24.465Z,73.13
2018-06-27T09:06:24.400Z,72.94
2018-06-27T09:07:24.343Z,73.22
2018-06-27T09:08:24.282Z,73.42
2018-06-27T09:09:24.233Z,73.71
2018-06-27T09:10:24.166Z,73.26
2018-06-27T09:11:24.106Z,71.66
2018-06-27T09:12:24.049Z,70.44
2018-06-27T09:13:23.991Z,69.03
2018-06-27T09:14:23.930Z,67.43
2018-06-27T09:15:23.872Z,66.30
2018-06-27T09:16:23.817Z,65.17
2018-06-27T09:17:23.758Z,62.05
2018-06-27T09:18:23.699Z,60.75
2018-06-27T09:19:23.644Z,57.69
2018-06-27T09:20:23.583Z,54.94
2018-06-27T09:21:23.526Z,54.28
2018-06-27T09:22:23.469Z,52.40
2018-06-27T09:23:23.410Z,51.33
2018-06-27T09:24:23.352Z,50.65
2018-06-27T09:25:23.300Z,50.46
2018-06-27T09:26:23.243Z,49.87
2018-06-27T09:27:23.186Z,50.29
2018-06-27T09:28:23.133Z,49.61
2018-06-27T09:29:23.078Z,49.68
2018-06-27T09:30:23.026Z,49.29
2018-06-27T09:31:22.968Z,49.68
2018-06-27T09:32:22.915Z,48.35
2018-06-27T09:33:22.862Z,48.64
2018-06-27T09:34:22.807Z,47.93
2018-06-27T09:35:22.753Z,49.73
2018-06-27T09:36:22.704Z,51.68
2018-06-27T09:37:22.646Z,53.81
2018-06-27T09:38:22.594Z,51.25
2018-06-27T09:39:22.539Z,50.21
2018-06-27T09:40:22.486Z,51.16
2018-06-27T09:41:22.434Z,53.14
2018-06-27T09:42:22.380Z,54.75
2018-06-27T09:43:22.327Z,54.01
2018-06-27T09:44:22.275Z,54.27
2018-06-27T09:45:22.222Z,53.26
2018-06-27T09:46:22.167Z,50.41
2018-06-27T09:47:22.114Z,48.73
2018-06-27T09:48:22.061Z,47.18
2018-06-27T09:49:22.008Z,45.75
2018-06-27T09:50:21.956Z,44.87
2018-06-27T09:51:21.901Z,44.51
2018-06-27T09:52:21.849Z,44.53
2018-06-27T09:53:21.796Z,43.48
2018-06-27T09:54:21.744Z,42.80
2018-06-27T09:55:21.691Z,42.33
2018-06-27T09:56:21.641Z,40.60
2018-06-27T09:57:21.589Z,41.50
2018-06-27T09:58:21.535Z,41.75
2018-06-27T09:59:21.482Z,42.95
2018-06-27T10:00:21.435Z,45.92
2018-06-27T10:01:21.380Z,47.33
2018-06-27T10:02:21.327Z,46.19
2018-06-27T10:03:21.276Z,45.72
2018-06-27T10:04:21.223Z,46.11
2018-06-27T10:05:21.173Z,46.36
2018-06-27T10:06:21.122Z,46.67
2018-06-27T10:07:21.069Z,45.82
2018-06-27T10:08:21.016Z,45.75
2018-06-27T10:09:20.964Z,46.96
2018-06-27T10:10:20.912Z,49.22
2018-06-27T10:11:20.861Z,50.55
2018-06-27T10:12:20.811Z,51.20
2018-06-27T10:13:20.757Z,52.89
2018-06-27T10:14:20.704Z,53.96
2018-06-27T10:15:20.657Z,54.90
2018-06-27T10:16:20.602Z,55.09
2018-06-27T10:17:20.594Z,55.77
2018-06-27T10:18:20.493Z,55.77
2018-06-27T10:19:20.441Z,54.57
2018-06-27T10:20:20.388Z,52.58
2018-06-27T10:21:20.332Z,50.21
2018-06-27T10:22:20.355Z,48.42
2018-06-27T10:23:20.226Z,47.55
2018-06-27T10:24:20.175Z,47.64
2018-06-27T10:25:20.123Z,46.98
2018-06-27T10:26:20.064Z,46.62
2018-06-27T10:27:20.010Z,46.62
2018-06-27T10:28:19.967Z,46.33
2018-06-27T10:29:19.905Z,46.04
2018-06-27T10:30:19.851Z,45.77
2018-06-27T10:31:19.798Z,45.45
2018-06-27T10:32:19.797Z,45.18
2018-06-27T10:33:19.693Z,45.18
2018-06-27T10:34:19.640Z,45.82
2018-06-27T10:35:19.586Z,47.08
2018-06-27T10:36:19.533Z,46.60
2018-06-27T10:37:19.481Z,48.20
2018-06-27T10:38:19.428Z,47.96
2018-06-27T10:39:19.375Z,46.33
2018-06-27T10:40:19.322Z,46.67
2018-06-27T10:41:19.274Z,47.89
2018-06-27T10:42:19.216Z,48.37
2018-06-27T10:43:19.165Z,50.07
2018-06-27T10:44:19.111Z,48.69
2018-06-27T10:45:19.058Z,48.83
2018-06-27T10:46:19.006Z,46.33
2018-06-27T10:47:18.954Z,46.82
2018-06-27T10:48:18.900Z,48.32
2018-06-27T10:49:18.845Z,47.74
2018-06-27T10:50:18.792Z,49.15
2018-06-27T10:51:18.737Z,50.40
2018-06-27T10:52:18.685Z,51.54
2018-06-27T10:53:18.633Z,51.83
2018-06-27T10:54:18.577Z,52.24
2018-06-27T10:55:18.526Z,52.44
2018-06-27T10:56:18.469Z,52.17
2018-06-27T10:57:18.415Z,53.79
2018-06-27T10:58:18.363Z,53.69
2018-06-27T10:59:18.307Z,52.29
2018-06-27T11:00:18.253Z,50.87
2018-06-27T11:01:18.198Z,50.31
2018-06-27T11:02:18.143Z,48.88
2018-06-27T11:03:18.090Z,47.93
2018-06-27T11:04:18.035Z,47.06
2018-06-27T11:05:18.019Z,46.41
2018-06-27T11:06:17.927Z,45.62
2018-06-27T11:07:17.873Z,45.84
2018-06-27T11:08:17.818Z,44.78
2018-06-27T11:09:17.761Z,45.07
2018-06-27T11:10:17.710Z,45.55
2018-06-27T11:11:17.656Z,45.26
2018-06-27T11:12:17.604Z,44.70
2018-06-27T11:13:17.550Z,45.38
2018-06-27T11:14:17.518Z,45.65
2018-06-27T11:15:17.441Z,45.65
2018-06-27T11:16:17.398Z,44.68
2018-06-27T11:17:17.337Z,44.65
2018-06-27T11:18:17.281Z,44.24
2018-06-27T11:19:17.225Z,45.29
2018-06-27T11:20:17.186Z,46.92
2018-06-27T11:21:17.121Z,47.11
2018-06-27T11:22:17.066Z,46.60
2018-06-27T11:23:17.014Z,46.51
2018-06-27T11:24:16.957Z,46.09
2018-06-27T11:25:16.908Z,47.36
2018-06-27T11:26:16.850Z,47.24
2018-06-27T11:27:16.797Z,48.79
2018-06-27T11:28:16.742Z,47.81
2018-06-27T11:29:16.687Z,48.86
2018-06-27T11:30:16.633Z,49.24
2018-06-27T11:31:16.581Z,49.82
2018-06-27T11:32:16.523Z,50.09
2018-06-27T11:33:16.470Z,50.86
2018-06-27T11:34:16.419Z,51.13
2018-06-27T11:35:16.358Z,50.93
2018-06-27T11:36:16.305Z,51.03
2018-06-27T11:37:16.258Z,51.03
2018-06-27T11:38:16.196Z,50.84
2018-06-27T11:39:16.137Z,50.07
2018-06-27T11:40:16.084Z,50.16
2018-06-27T11:41:16.028Z,50.84
2018-06-27T11:42:15.972Z,50.16
2018-06-27T11:43:15.967Z,50.35
2018-06-27T11:44:15.858Z,50.55
2018-06-27T11:45:15.806Z,50.93
2018-06-27T11:46:15.748Z,50.35
2018-06-27T11:47:15.700Z,49.58
2018-06-27T11:48:15.648Z,49.97
2018-06-27T11:49:15.580Z,50.16
2018-06-27T11:50:15.525Z,49.58
2018-06-27T11:51:15.469Z,50.26
2018-06-27T11:52:15.412Z,49.49
2018-06-27T11:53:15.374Z,48.61
2018-06-27T11:54:15.298Z,47.26
2018-06-27T11:55:15.242Z,47.28
2018-06-27T11:56:15.187Z,48.64
2018-06-27T11:57:15.130Z,47.48
2018-06-27T11:58:15.076Z,47.86
2018-06-27T11:59:15.021Z,44.57
2018-06-27T12:00:14.967Z,45.45
2018-06-27T12:01:14.906Z,45.74
2018-06-27T12:02:14.849Z,45.83
2018-06-27T12:03:14.789Z,45.93
2018-06-27T12:04:14.735Z,45.64
2018-06-27T12:05:14.678Z,45.16
2018-06-27T12:06:14.632Z,45.33
2018-06-27T12:07:14.564Z,45.81
2018-06-27T12:08:14.508Z,45.91
2018-06-27T12:09:14.451Z,46.10
2018-06-27T12:10:14.391Z,46.49
2018-06-27T12:11:14.337Z,46.17
2018-06-27T12:12:14.281Z,46.75
2018-06-27T12:13:14.226Z,47.33
2018-06-27T12:14:14.167Z,46.66
2018-06-27T12:15:14.109Z,46.66
2018-06-27T12:16:14.053Z,46.66
2018-06-27T12:17:13.997Z,46.85
2018-06-27T12:18:13.939Z,46.75
2018-06-27T12:19:13.882Z,46.83
2018-06-27T12:20:13.825Z,46.85
2018-06-27T12:21:13.770Z,46.56
2018-06-27T12:22:13.711Z,46.95
2018-06-27T12:23:13.656Z,46.37
2018-06-27T12:24:13.617Z,46.37
2018-06-27T12:25:13.546Z,46.47
2018-06-27T12:26:13.522Z,46.47
2018-06-27T12:27:13.427Z,46.17
2018-06-27T12:28:13.371Z,46.08
2018-06-27T12:29:13.312Z,45.59
2018-06-27T12:30:13.256Z,46.66
2018-06-27T12:31:13.198Z,45.40
2018-06-27T12:32:13.141Z,45.31
2018-06-27T12:33:13.083Z,44.56
2018-06-27T12:34:13.026Z,45.14
2018-06-27T12:35:12.967Z,44.75
2018-06-27T12:36:12.911Z,44.26
2018-06-27T12:37:12.859Z,45.23
2018-06-27T12:38:12.798Z,45.14
2018-06-27T12:39:12.738Z,43.10
2018-06-27T12:40:12.686Z,43.78
2018-06-27T12:41:12.625Z,43.78
2018-06-27T12:42:12.567Z,44.26
2018-06-27T12:43:12.531Z,44.17
2018-06-27T12:44:12.453Z,44.26
2018-06-27T12:45:12.397Z,43.59
2018-06-27T12:46:12.339Z,44.36
2018-06-27T12:47:12.279Z,43.30
2018-06-27T12:48:12.224Z,43.88
2018-06-27T12:49:12.169Z,44.36
2018-06-27T12:50:12.161Z,43.88
2018-06-27T12:51:12.058Z,43.49
2018-06-27T12:52:11.996Z,43.49